Time;durP1;ratioP1;P1;durP2;ratioP2;P2;SDS_P1;SDS_P2;PMS_P1;PMS_P2;Temp;Humidity;BMP_temperature;BMP_pressure;BME280_temperature;BME280_humidity;BME280_pressure;Samples;Min_cycle;Max_cycle;Signal;HPM_P1;HPM_P2
2021/10/17 00:00:24;;;;;;;6.47;3.40;;;8.90;99.90;;;;;;5035438;28;20033;-47
2021/10/17 00:02:50;;;;;;;5.90;3.00;;;8.90;99.90;;;;;;5038278;28;20123;-48
2021/10/17 00:05:18;;;;;;;5.03;3.22;;;8.90;99.90;;;;;;5037151;28;20167;-54
2021/10/17 00:07:44;;;;;;;6.25;3.00;;;8.80;99.90;;;;;;5035928;28;20048;-48
2021/10/17 00:10:13;;;;;;;5.30;2.80;;;8.90;99.90;;;;;;5044223;28;20499;-52
2021/10/17 00:12:41;;;;;;;14.27;5.00;;;8.90;99.90;;;;;;5036109;28;20034;-54
2021/10/17 00:15:14;;;;;;;7.32;3.15;;;8.90;99.90;;;;;;5043756;28;20472;-53
2021/10/17 00:17:41;;;;;;;8.45;3.28;;;8.90;99.90;;;;;;5044881;28;20041;-51
2021/10/17 00:20:09;;;;;;;9.70;4.10;;;8.80;99.90;;;;;;5037749;28;20392;-53
2021/10/17 00:22:35;;;;;;;8.02;3.70;;;8.80;99.90;;;;;;5037369;28;20558;-50
2021/10/17 00:25:00;;;;;;;6.68;3.25;;;8.80;99.90;;;;;;5035719;28;20028;-51
2021/10/17 00:27:26;;;;;;;7.28;3.70;;;8.80;99.90;;;;;;5042030;28;20026;-52
2021/10/17 00:29:51;;;;;;;5.60;2.20;;;8.80;99.90;;;;;;5041350;28;20036;-50
2021/10/17 00:32:17;;;;;;;7.68;2.65;;;8.80;99.90;;;;;;5044468;28;20415;-48
2021/10/17 00:34:44;;;;;;;5.55;2.88;;;8.80;99.90;;;;;;5040170;28;20096;-50
2021/10/17 00:37:09;;;;;;;7.50;2.80;;;8.80;99.90;;;;;;5045166;28;20028;-54
2021/10/17 00:39:35;;;;;;;6.45;2.50;;;8.70;99.90;;;;;;5041573;28;20037;-50
2021/10/17 00:42:04;;;;;;;6.88;2.60;;;8.70;99.90;;;;;;5038878;28;20033;-52
2021/10/17 00:44:31;;;;;;;5.65;2.42;;;8.70;99.90;;;;;;5035738;28;20538;-50
2021/10/17 00:46:56;;;;;;;6.45;2.50;;;8.70;99.90;;;;;;5054074;28;20061;-51
2021/10/17 00:49:22;;;;;;;9.50;3.13;;;8.70;99.90;;;;;;5043051;28;20087;-51
2021/10/17 00:51:48;;;;;;;5.38;2.65;;;8.70;99.90;;;;;;5037159;28;20425;-49
2021/10/17 00:54:15;;;;;;;5.90;3.15;;;8.70;99.90;;;;;;5043697;28;20169;-50
2021/10/17 00:56:45;;;;;;;6.40;3.53;;;8.70;99.90;;;;;;5039846;28;20017;-53
2021/10/17 00:59:11;;;;;;;6.07;3.28;;;8.70;99.90;;;;;;5038282;28;20093;-51
2021/10/17 01:01:37;;;;;;;9.48;5.07;;;8.60;99.90;;;;;;5051699;28;20112;-48
2021/10/17 01:04:03;;;;;;;8.32;3.55;;;8.60;99.90;;;;;;5048054;28;20484;-52
2021/10/17 01:06:29;;;;;;;7.65;2.85;;;8.60;99.90;;;;;;5043156;28;20029;-50
2021/10/17 01:08:55;;;;;;;6.97;3.28;;;8.60;99.90;;;;;;5050232;28;20095;-49
2021/10/17 01:11:21;;;;;;;5.05;3.17;;;8.60;99.90;;;;;;5047712;28;20485;-51
2021/10/17 01:13:47;;;;;;;5.28;2.90;;;8.60;99.90;;;;;;5046336;28;20032;-50
2021/10/17 01:16:12;;;;;;;4.95;2.33;;;8.60;99.90;;;;;;5041683;28;20056;-47
2021/10/17 01:18:38;;;;;;;3.42;2.22;;;8.60;99.90;;;;;;5037534;28;20037;-52
2021/10/17 01:21:04;;;;;;;6.72;2.40;;;8.60;99.90;;;;;;5048997;28;20384;-50
2021/10/17 01:23:29;;;;;;;5.70;2.30;;;8.60;99.90;;;;;;5033902;28;20389;-51
2021/10/17 01:25:55;;;;;;;5.28;2.50;;;8.60;99.90;;;;;;5041537;28;20480;-51
2021/10/17 01:28:22;;;;;;;4.88;2.55;;;8.50;99.90;;;;;;5044206;28;20037;-53
2021/10/17 01:30:48;;;;;;;4.78;2.53;;;8.50;99.90;;;;;;5046820;28;20057;-51
2021/10/17 01:33:13;;;;;;;5.07;3.00;;;8.50;99.90;;;;;;5045496;28;20068;-46
2021/10/17 01:35:39;;;;;;;7.70;3.15;;;8.50;99.90;;;;;;5044914;28;20139;-52
2021/10/17 01:38:06;;;;;;;5.30;2.83;;;8.50;99.90;;;;;;5038361;28;20040;-50
2021/10/17 01:40:31;;;;;;;61.17;24.60;;;8.50;99.90;;;;;;5043255;28;20039;-48
2021/10/17 01:42:57;;;;;;;27.42;13.75;;;8.50;99.90;;;;;;5056853;28;20033;-47
2021/10/17 01:45:23;;;;;;;16.05;7.90;;;8.50;99.90;;;;;;5040467;28;20037;-48
2021/10/17 01:47:50;;;;;;;25.58;10.15;;;8.50;99.90;;;;;;5046279;28;20041;-51
2021/10/17 01:50:17;;;;;;;33.38;13.13;;;8.50;99.90;;;;;;5041239;28;20087;-51
2021/10/17 01:52:44;;;;;;;21.52;8.60;;;8.50;99.90;;;;;;5037859;28;20156;-47
2021/10/17 01:55:09;;;;;;;13.32;6.18;;;8.50;99.90;;;;;;5036253;28;20021;-48
2021/10/17 01:57:35;;;;;;;25.40;9.80;;;8.50;99.90;;;;;;5037706;28;20032;-51
2021/10/17 02:00:01;;;;;;;17.20;7.57;;;8.50;99.90;;;;;;5041355;28;20049;-54
2021/10/17 02:02:27;;;;;;;11.38;5.32;;;8.50;99.90;;;;;;5044017;28;20059;-48
2021/10/17 02:04:53;;;;;;;13.35;5.47;;;8.50;99.90;;;;;;5040407;28;20472;-47
2021/10/17 02:07:18;;;;;;;11.70;4.75;;;8.50;99.90;;;;;;5039884;28;20048;-50
2021/10/17 02:09:44;;;;;;;22.77;6.97;;;8.50;99.90;;;;;;5048033;28;20049;-52
2021/10/17 02:12:10;;;;;;;20.40;6.93;;;8.50;99.90;;;;;;5047278;28;20036;-53
2021/10/17 02:14:36;;;;;;;9.25;4.18;;;8.50;99.90;;;;;;5034443;28;20021;-52
2021/10/17 02:17:05;;;;;;;10.35;4.55;;;8.50;99.90;;;;;;5038893;28;20427;-49
2021/10/17 02:19:31;;;;;;;11.07;4.80;;;8.50;99.90;;;;;;5046973;28;20039;-50
2021/10/17 02:21:56;;;;;;;13.90;3.92;;;8.50;99.90;;;;;;5040078;28;20124;-53
2021/10/17 02:24:22;;;;;;;7.10;3.67;;;8.50;99.90;;;;;;5041880;28;20029;-52
2021/10/17 02:26:47;;;;;;;20.70;9.60;;;8.50;99.90;;;;;;5037139;28;20033;-52
2021/10/17 02:29:12;;;;;;;14.98;4.82;;;8.50;99.90;;;;;;5039511;28;20029;-47
2021/10/17 02:31:38;;;;;;;13.50;4.32;;;8.50;99.90;;;;;;5052579;28;20030;-48
2021/10/17 02:34:03;;;;;;;7.45;4.10;;;8.50;99.90;;;;;;5046668;28;20075;-48
2021/10/17 02:36:29;;;;;;;8.00;4.00;;;8.50;99.90;;;;;;5043151;28;20036;-54
2021/10/17 02:38:54;;;;;;;9.05;3.40;;;8.50;99.90;;;;;;5040176;28;20468;-50
2021/10/17 02:41:20;;;;;;;12.80;4.40;;;8.50;99.90;;;;;;5041791;28;20028;-55
2021/10/17 02:43:45;;;;;;;10.57;5.15;;;8.50;99.90;;;;;;5048578;28;20146;-49
2021/10/17 02:46:11;;;;;;;9.57;4.07;;;8.50;99.90;;;;;;5038719;28;20029;-50
2021/10/17 02:48:36;;;;;;;5.38;3.05;;;8.50;99.90;;;;;;5045922;28;20045;-48
2021/10/17 02:51:02;;;;;;;7.40;3.60;;;8.50;99.90;;;;;;5039206;28;20135;-50
2021/10/17 02:53:27;;;;;;;12.18;3.70;;;8.50;99.90;;;;;;5036427;28;20056;-48
2021/10/17 02:55:53;;;;;;;7.78;2.85;;;8.50;99.90;;;;;;5040303;28;20013;-55
2021/10/17 02:58:18;;;;;;;8.75;2.63;;;8.50;99.90;;;;;;5040851;28;20388;-51
2021/10/17 03:00:44;;;;;;;6.00;2.60;;;8.50;99.90;;;;;;5036413;28;20048;-48
2021/10/17 03:03:09;;;;;;;5.93;2.40;;;8.50;99.90;;;;;;5045980;28;20430;-51
2021/10/17 03:05:35;;;;;;;5.05;2.33;;;8.50;99.90;;;;;;5043225;28;20121;-55
2021/10/17 03:08:00;;;;;;;5.72;2.40;;;8.40;99.90;;;;;;5036283;28;20397;-49
2021/10/17 03:10:26;;;;;;;3.88;2.40;;;8.40;99.90;;;;;;5042869;28;21042;-50
2021/10/17 03:12:52;;;;;;;8.70;2.20;;;8.40;99.90;;;;;;5041625;28;20025;-48
2021/10/17 03:15:17;;;;;;;3.55;1.98;;;8.40;99.90;;;;;;5041823;28;20476;-49
2021/10/17 03:17:43;;;;;;;4.93;2.60;;;8.40;99.90;;;;;;5033255;28;20100;-50
2021/10/17 03:20:10;;;;;;;7.60;2.45;;;8.40;99.90;;;;;;5041857;28;20030;-48
2021/10/17 03:22:36;;;;;;;4.53;2.28;;;8.40;99.90;;;;;;5040297;28;20547;-48
2021/10/17 03:25:01;;;;;;;4.07;2.25;;;8.40;99.90;;;;;;5035945;28;20100;-48
2021/10/17 03:27:27;;;;;;;6.07;2.00;;;8.40;99.90;;;;;;5037711;28;20025;-52
2021/10/17 03:29:52;;;;;;;29.17;12.40;;;8.40;99.90;;;;;;5047124;28;20029;-47
2021/10/17 03:32:18;;;;;;;11.23;6.15;;;8.40;99.90;;;;;;5044127;28;20044;-48
2021/10/17 03:34:43;;;;;;;7.40;4.03;;;8.40;99.90;;;;;;5036154;28;20081;-53
2021/10/17 03:37:09;;;;;;;8.38;3.85;;;8.40;99.90;;;;;;5035880;28;20021;-52
2021/10/17 03:39:34;;;;;;;5.35;3.25;;;8.40;99.90;;;;;;5042890;28;20377;-53
2021/10/17 03:42:00;;;;;;;6.03;2.88;;;8.40;99.90;;;;;;5035451;28;20330;-53
2021/10/17 03:44:25;;;;;;;6.85;2.97;;;8.40;99.90;;;;;;5044009;28;20021;-48
2021/10/17 03:46:51;;;;;;;5.95;3.28;;;8.40;99.90;;;;;;5039047;28;20029;-49
2021/10/17 03:49:16;;;;;;;5.80;2.80;;;8.40;99.90;;;;;;5031408;28;20029;-50
2021/10/17 03:51:42;;;;;;;3.20;2.03;;;8.40;99.90;;;;;;5045381;28;20029;-48
2021/10/17 03:54:07;;;;;;;6.70;2.38;;;8.30;99.90;;;;;;5044149;28;20098;-50
2021/10/17 03:56:33;;;;;;;8.02;2.88;;;8.30;99.90;;;;;;5034492;28;20075;-50
2021/10/17 03:58:58;;;;;;;4.47;2.17;;;8.20;99.90;;;;;;5036334;28;20361;-51
2021/10/17 04:01:24;;;;;;;8.55;2.22;;;8.10;99.90;;;;;;5040896;28;20033;-49
2021/10/17 04:03:49;;;;;;;4.30;2.38;;;8.00;99.90;;;;;;5046312;28;20095;-50
2021/10/17 04:06:15;;;;;;;6.80;2.55;;;7.80;99.90;;;;;;5043933;28;20033;-52
2021/10/17 04:08:41;;;;;;;7.68;1.80;;;7.70;99.90;;;;;;5042630;28;20058;-51
2021/10/17 04:11:07;;;;;;;2.90;1.90;;;7.60;99.90;;;;;;5030624;28;20030;-51
2021/10/17 04:13:32;;;;;;;6.10;2.58;;;7.50;99.90;;;;;;5042397;28;20134;-53
2021/10/17 04:15:57;;;;;;;6.82;2.13;;;7.40;99.90;;;;;;5049606;28;20025;-52
2021/10/17 04:18:23;;;;;;;2.90;1.70;;;7.20;99.90;;;;;;5050968;28;20839;-52
2021/10/17 04:20:48;;;;;;;4.85;2.28;;;7.10;99.90;;;;;;5044814;28;20130;-47
2021/10/17 04:23:14;;;;;;;3.22;2.10;;;7.00;99.90;;;;;;5042017;28;20033;-52
2021/10/17 04:25:39;;;;;;;7.18;2.30;;;6.90;99.90;;;;;;5048156;28;20036;-47
2021/10/17 04:28:05;;;;;;;4.35;2.42;;;6.80;99.90;;;;;;5041428;28;20447;-53
2021/10/17 04:30:31;;;;;;;5.43;2.20;;;6.70;99.90;;;;;;5038146;28;20056;-49
2021/10/17 04:32:56;;;;;;;6.38;2.00;;;6.60;99.90;;;;;;5034939;28;20061;-51
2021/10/17 04:35:22;;;;;;;6.25;2.30;;;6.50;99.90;;;;;;5041759;28;20142;-48
2021/10/17 04:37:47;;;;;;;6.85;2.25;;;6.40;99.90;;;;;;5041582;28;20055;-49
2021/10/17 04:40:13;;;;;;;6.32;2.78;;;6.40;99.90;;;;;;5040457;28;20029;-46
2021/10/17 04:42:38;;;;;;;5.32;1.95;;;6.30;99.90;;;;;;5042178;28;20032;-47
2021/10/17 04:45:05;;;;;;;3.63;1.75;;;6.20;99.90;;;;;;5041609;28;20429;-48
2021/10/17 04:47:31;;;;;;;6.03;1.98;;;6.10;99.90;;;;;;5035391;28;20036;-48
2021/10/17 04:49:56;;;;;;;5.07;2.20;;;5.90;99.90;;;;;;5042265;28;20108;-50
2021/10/17 04:52:22;;;;;;;4.70;2.28;;;5.90;99.90;;;;;;5040437;28;20536;-48
2021/10/17 04:54:47;;;;;;;3.28;2.00;;;5.80;99.90;;;;;;5041967;28;20033;-53
2021/10/17 04:57:13;;;;;;;5.20;2.33;;;5.70;99.90;;;;;;5039421;28;20037;-54
2021/10/17 04:59:38;;;;;;;3.40;2.00;;;5.60;99.90;;;;;;5041800;28;20029;-55
2021/10/17 05:02:04;;;;;;;5.57;2.88;;;5.50;99.90;;;;;;5035016;28;20072;-53
2021/10/17 05:04:29;;;;;;;2.70;2.10;;;5.50;99.90;;;;;;5041799;28;20075;-51
2021/10/17 05:06:55;;;;;;;4.30;2.53;;;5.40;99.90;;;;;;5041848;28;20075;-53
2021/10/17 05:09:20;;;;;;;5.45;3.20;;;5.30;99.90;;;;;;5040466;28;20121;-49
2021/10/17 05:11:46;;;;;;;5.30;2.75;;;5.30;99.90;;;;;;5037296;28;20416;-53
2021/10/17 05:14:11;;;;;;;5.25;3.05;;;5.20;99.90;;;;;;5040533;28;20527;-50
2021/10/17 05:16:37;;;;;;;5.72;2.58;;;5.20;99.90;;;;;;5041639;28;20037;-53
2021/10/17 05:19:02;;;;;;;4.88;2.78;;;5.10;99.90;;;;;;5041606;28;20041;-52
2021/10/17 05:21:28;;;;;;;5.35;2.53;;;5.10;99.90;;;;;;5037879;28;20079;-52
2021/10/17 05:23:55;;;;;;;4.07;2.10;;;5.10;99.90;;;;;;5035051;28;20025;-48
2021/10/17 05:26:21;;;;;;;4.65;2.10;;;5.00;99.90;;;;;;5031449;28;20476;-52
2021/10/17 05:28:47;;;;;;;5.80;2.30;;;5.00;99.90;;;;;;5041218;28;20044;-53
2021/10/17 05:31:12;;;;;;;4.53;2.50;;;5.00;99.90;;;;;;5041145;28;20489;-47
2021/10/17 05:33:39;;;;;;;2.50;2.13;;;5.00;99.90;;;;;;5045246;28;20032;-51
2021/10/17 05:36:05;;;;;;;6.10;2.38;;;5.00;99.90;;;;;;5044961;28;20029;-48
2021/10/17 05:38:30;;;;;;;3.15;1.65;;;5.00;99.90;;;;;;5041823;28;20455;-53
2021/10/17 05:40:56;;;;;;;5.60;2.55;;;4.90;99.90;;;;;;5046388;28;20032;-54
2021/10/17 05:43:22;;;;;;;4.13;2.30;;;4.90;99.90;;;;;;5043428;28;20029;-52
2021/10/17 05:45:47;;;;;;;5.63;2.40;;;4.90;99.90;;;;;;5046295;28;20044;-46
2021/10/17 05:48:13;;;;;;;3.47;2.22;;;4.90;99.90;;;;;;5043484;28;20048;-54
2021/10/17 05:50:39;;;;;;;5.68;2.53;;;4.90;99.90;;;;;;5046942;28;20240;-52
2021/10/17 05:53:04;;;;;;;7.38;2.50;;;5.00;99.90;;;;;;5041804;28;20033;-51
2021/10/17 05:55:29;;;;;;;7.78;2.78;;;5.00;99.90;;;;;;5041486;28;20044;-50
2021/10/17 05:57:55;;;;;;;9.52;2.92;;;5.00;99.90;;;;;;5041311;28;20055;-53
2021/10/17 06:00:21;;;;;;;6.45;2.80;;;5.00;99.90;;;;;;5037760;28;20045;-50
2021/10/17 06:02:47;;;;;;;4.40;2.25;;;5.10;99.90;;;;;;5045584;28;20029;-47
2021/10/17 06:05:12;;;;;;;4.70;2.35;;;5.10;99.90;;;;;;5042277;28;20439;-50
2021/10/17 06:07:38;;;;;;;4.10;2.03;;;5.20;99.90;;;;;;5046896;28;20049;-51
2021/10/17 06:10:09;;;;;;;6.70;2.75;;;5.30;99.90;;;;;;5040769;28;20104;-53
2021/10/17 06:12:38;;;;;;;5.05;2.38;;;5.40;99.90;;;;;;5040972;28;20033;-49
2021/10/17 06:15:05;;;;;;;7.07;2.75;;;5.50;99.90;;;;;;5035405;28;21027;-53
2021/10/17 06:17:31;;;;;;;6.75;2.70;;;5.60;99.90;;;;;;5041098;28;20045;-50
2021/10/17 06:19:56;;;;;;;6.20;2.60;;;5.70;99.90;;;;;;5041214;28;20029;-49
2021/10/17 06:22:22;;;;;;;6.18;3.17;;;5.80;99.90;;;;;;5043311;28;20029;-48
2021/10/17 06:24:47;;;;;;;4.95;2.40;;;6.00;99.90;;;;;;5045339;28;20108;-52
2021/10/17 06:27:13;;;;;;;4.00;2.65;;;6.20;99.90;;;;;;5044205;28;20029;-49
2021/10/17 06:29:38;;;;;;;3.55;2.60;;;6.40;99.90;;;;;;5045057;28;20056;-50
2021/10/17 06:32:04;;;;;;;6.07;2.90;;;6.60;99.90;;;;;;5043824;28;20045;-52
2021/10/17 06:34:30;;;;;;;5.00;2.60;;;6.80;99.90;;;;;;5040627;28;20041;-49
2021/10/17 06:36:56;;;;;;;5.20;2.60;;;7.00;99.90;;;;;;5040653;28;20504;-47
2021/10/17 06:39:22;;;;;;;4.88;2.67;;;7.10;99.90;;;;;;5042644;28;20033;-54
2021/10/17 06:41:47;;;;;;;3.92;2.85;;;7.20;99.90;;;;;;5037921;28;20037;-50
2021/10/17 06:44:13;;;;;;;4.05;2.53;;;7.30;99.90;;;;;;5045509;28;20033;-50
2021/10/17 06:46:38;;;;;;;8.55;3.88;;;7.30;99.90;;;;;;5040278;28;20029;-53
2021/10/17 06:49:04;;;;;;;6.75;3.40;;;7.30;99.90;;;;;;5040024;28;20048;-50
2021/10/17 06:51:29;;;;;;;4.30;2.97;;;7.30;99.90;;;;;;5043493;28;20044;-50
2021/10/17 06:53:55;;;;;;;4.43;2.88;;;7.40;99.90;;;;;;5036744;28;20064;-50
2021/10/17 06:56:20;;;;;;;4.65;3.17;;;7.40;99.90;;;;;;5040998;28;20032;-51
2021/10/17 06:58:46;;;;;;;4.25;2.75;;;7.40;99.90;;;;;;5043328;28;20040;-49
2021/10/17 07:01:11;;;;;;;4.63;2.33;;;7.50;99.90;;;;;;5042215;28;20033;-48
2021/10/17 07:03:37;;;;;;;4.32;2.40;;;7.60;99.90;;;;;;5043521;28;20060;-50
2021/10/17 07:06:06;;;;;;;7.85;2.20;;;7.60;99.90;;;;;;5043328;28;20103;-53
2021/10/17 07:08:32;;;;;;;4.00;2.00;;;7.70;99.90;;;;;;5039828;28;20088;-53
2021/10/17 07:10:59;;;;;;;3.72;2.13;;;7.80;99.90;;;;;;5039019;28;20065;-52
2021/10/17 07:13:25;;;;;;;4.60;2.33;;;7.80;99.90;;;;;;5042285;28;20568;-48
2021/10/17 07:15:50;;;;;;;2.60;1.98;;;7.90;99.90;;;;;;5043437;28;20112;-52
2021/10/17 07:18:16;;;;;;;6.75;1.95;;;8.00;99.90;;;;;;5041281;28;20443;-50
2021/10/17 07:20:41;;;;;;;4.40;2.35;;;8.10;99.90;;;;;;5038161;28;20476;-50
2021/10/17 07:23:07;;;;;;;4.80;1.92;;;8.20;99.90;;;;;;5046338;28;20111;-52
2021/10/17 07:25:33;;;;;;;6.43;2.00;;;8.20;99.90;;;;;;5038624;28;20140;-52
2021/10/17 07:27:58;;;;;;;5.07;2.53;;;8.40;99.90;;;;;;5039537;28;20040;-51
2021/10/17 07:30:24;;;;;;;5.40;2.45;;;8.50;99.90;;;;;;5041021;28;20045;-49
2021/10/17 07:32:49;;;;;;;3.78;2.22;;;8.60;99.90;;;;;;5041676;28;20341;-49
2021/10/17 07:35:15;;;;;;;5.40;2.33;;;8.80;99.90;;;;;;5041844;28;20037;-53
2021/10/17 07:37:41;;;;;;;3.92;2.42;;;8.90;99.90;;;;;;5043753;28;20036;-51
2021/10/17 07:40:07;;;;;;;2.88;2.03;;;9.10;99.90;;;;;;5042064;28;20025;-53
2021/10/17 07:42:32;;;;;;;5.80;2.50;;;9.20;99.90;;;;;;5040045;28;20037;-52
2021/10/17 07:44:58;;;;;;;3.50;2.17;;;9.40;99.90;;;;;;5040852;28;20024;-51
2021/10/17 07:47:24;;;;;;;4.78;1.70;;;9.50;99.90;;;;;;5040665;28;20025;-51
2021/10/17 07:49:50;;;;;;;10.10;2.78;;;9.70;99.90;;;;;;5040397;28;20563;-48
2021/10/17 07:52:16;;;;;;;4.30;2.15;;;9.80;99.90;;;;;;5043951;28;20060;-52
2021/10/17 07:54:41;;;;;;;3.03;1.83;;;9.90;99.90;;;;;;5039748;28;20111;-49
2021/10/17 07:57:07;;;;;;;3.65;1.80;;;10.10;99.90;;;;;;5038961;28;20049;-48
2021/10/17 07:59:33;;;;;;;2.95;1.95;;;10.20;99.90;;;;;;5046148;28;20029;-55
2021/10/17 08:01:59;;;;;;;6.90;1.90;;;10.30;99.90;;;;;;5038318;28;20026;-54
2021/10/17 08:04:25;;;;;;;5.07;1.85;;;10.40;99.90;;;;;;5041116;28;20055;-49
2021/10/17 08:06:51;;;;;;;4.03;2.20;;;10.50;99.90;;;;;;5039709;28;20488;-50
2021/10/17 08:09:16;;;;;;;4.32;1.80;;;10.70;99.90;;;;;;5041377;28;20073;-50
2021/10/17 08:11:42;;;;;;;6.70;2.00;;;10.80;99.90;;;;;;5043726;28;20112;-51
2021/10/17 08:14:07;;;;;;;8.27;2.20;;;10.90;99.90;;;;;;5046556;28;20063;-50
2021/10/17 08:16:33;;;;;;;5.72;1.98;;;11.00;99.90;;;;;;5039742;28;20038;-55
2021/10/17 08:18:58;;;;;;;5.35;2.08;;;11.10;99.90;;;;;;5039916;28;20025;-53
2021/10/17 08:21:24;;;;;;;3.60;1.90;;;11.20;99.90;;;;;;5042243;28;20029;-51
2021/10/17 08:23:50;;;;;;;5.40;2.03;;;11.40;99.90;;;;;;5043365;28;20032;-47
2021/10/17 08:26:15;;;;;;;6.82;2.15;;;11.50;99.90;;;;;;5040051;28;20116;-53
2021/10/17 08:28:41;;;;;;;4.75;1.92;;;11.60;99.90;;;;;;5039599;28;20037;-49
2021/10/17 08:31:06;;;;;;;4.97;1.70;;;11.70;99.90;;;;;;5039949;28;20028;-48
2021/10/17 08:33:32;;;;;;;5.88;2.15;;;11.80;99.90;;;;;;5044090;28;20029;-49
2021/10/17 08:35:58;;;;;;;5.13;2.00;;;11.80;99.90;;;;;;5048506;28;20032;-51
2021/10/17 08:38:23;;;;;;;5.93;2.22;;;11.90;99.90;;;;;;5041335;28;20146;-51
2021/10/17 08:40:56;;;;;;;5.20;2.33;;;11.90;99.90;;;;;;5042904;28;20037;-52
2021/10/17 08:43:22;;;;;;;6.03;2.40;;;12.00;99.90;;;;;;5039489;28;20485;-49
2021/10/17 08:45:47;;;;;;;9.85;2.80;;;12.00;99.90;;;;;;5041933;28;20033;-49
2021/10/17 08:48:14;;;;;;;7.57;2.90;;;12.00;99.90;;;;;;5041273;28;20045;-50
2021/10/17 08:50:40;;;;;;;3.90;2.70;;;12.00;99.90;;;;;;5042798;28;20551;-53
2021/10/17 08:53:06;;;;;;;5.55;3.38;;;12.00;99.90;;;;;;5041725;28;20363;-52
2021/10/17 08:55:32;;;;;;;7.15;3.13;;;12.00;99.90;;;;;;5038303;28;20032;-51
2021/10/17 08:57:57;;;;;;;6.55;2.72;;;12.10;99.90;;;;;;5039405;28;20033;-51
2021/10/17 09:00:31;;;;;;;5.20;1.95;;;12.20;99.90;;;;;;5041786;28;20057;-48
2021/10/17 09:02:58;;;;;;;5.85;2.58;;;12.30;99.90;;;;;;5042226;28;20531;-52
2021/10/17 09:05:56;;;;;;;2.70;1.95;;;12.30;99.90;;;;;;5042062;28;20064;-46
2021/10/17 09:08:27;;;;;;;5.78;2.35;;;12.40;99.90;;;;;;5033631;28;20128;-48
2021/10/17 09:10:53;;;;;;;5.35;2.22;;;12.40;99.90;;;;;;5045280;28;20029;-53
2021/10/17 09:13:19;;;;;;;5.68;2.50;;;12.50;99.90;;;;;;5042850;28;20036;-49
2021/10/17 09:15:45;;;;;;;6.05;2.13;;;12.60;99.90;;;;;;5042955;28;20489;-48
2021/10/17 09:18:21;;;;;;;7.28;2.90;;;12.60;99.90;;;;;;5044181;28;20016;-49
2021/10/17 09:20:47;;;;;;;4.72;2.50;;;12.50;99.90;;;;;;5048224;28;20033;-46
2021/10/17 09:23:26;;;;;;;4.95;2.60;;;12.60;99.90;;;;;;5044978;28;20039;-46
2021/10/17 09:25:54;;;;;;;7.38;2.78;;;12.50;99.90;;;;;;5044413;28;20380;-50
2021/10/17 09:28:23;;;;;;;7.93;3.90;;;12.50;99.90;;;;;;5035806;28;20039;-49
2021/10/17 09:31:12;;;;;;;6.38;3.38;;;12.50;99.90;;;;;;5039044;28;20453;-49
2021/10/17 09:33:50;;;;;;;6.70;2.80;;;12.70;99.90;;;;;;5043125;28;20037;-51
2021/10/17 09:36:33;;;;;;;5.75;2.58;;;12.80;99.90;;;;;;5044213;28;20025;-51
2021/10/17 09:39:10;;;;;;;6.32;2.67;;;13.00;99.90;;;;;;5045995;28;20028;-50
2021/10/17 09:41:53;;;;;;;6.20;2.65;;;13.10;99.90;;;;;;5042964;28;20025;-49
2021/10/17 09:44:18;;;;;;;4.70;2.15;;;13.40;99.90;;;;;;5040393;28;20036;-50
2021/10/17 09:46:58;;;;;;;6.50;2.75;;;13.70;99.90;;;;;;5041597;28;20029;-51
2021/10/17 09:49:24;;;;;;;7.32;2.40;;;13.90;99.90;;;;;;5045012;28;20104;-53
2021/10/17 09:52:08;;;;;;;5.32;2.78;;;14.10;99.90;;;;;;5041601;28;20160;-48
2021/10/17 09:54:34;;;;;;;4.90;2.72;;;14.20;94.20;;;;;;5050649;28;20043;-51
2021/10/17 09:57:04;;;;;;;5.85;3.38;;;14.20;96.70;;;;;;5049733;28;20025;-49
2021/10/17 09:59:30;;;;;;;5.22;2.83;;;14.20;96.20;;;;;;5049757;28;20090;-48
2021/10/17 10:01:55;;;;;;;6.63;2.67;;;14.10;97.50;;;;;;5049288;28;20083;-52
2021/10/17 10:04:21;;;;;;;6.57;2.90;;;14.10;98.10;;;;;;5050836;28;20045;-49
2021/10/17 10:06:47;;;;;;;6.88;2.97;;;14.10;97.50;;;;;;5050619;28;20025;-52
2021/10/17 10:09:19;;;;;;;7.80;3.17;;;14.00;97.30;;;;;;5047721;28;20499;-48
2021/10/17 10:11:46;;;;;;;5.55;2.45;;;14.00;96.60;;;;;;5035384;28;20026;-51
2021/10/17 10:14:13;;;;;;;4.80;2.53;;;13.90;97.10;;;;;;5038289;28;20499;-50
2021/10/17 10:16:39;;;;;;;10.10;3.35;;;13.70;96.50;;;;;;5047375;28;20151;-51
2021/10/17 10:19:07;;;;;;;4.70;2.60;;;13.50;96.40;;;;;;5044433;28;20109;-50
2021/10/17 10:21:34;;;;;;;7.25;3.17;;;13.40;95.60;;;;;;5039063;28;20040;-50
2021/10/17 10:24:06;;;;;;;7.45;2.90;;;13.30;95.20;;;;;;5045168;28;20061;-53
2021/10/17 10:26:33;;;;;;;4.65;2.60;;;13.30;94.90;;;;;;5041302;28;20155;-48
2021/10/17 10:28:59;;;;;;;8.07;2.88;;;13.30;95.90;;;;;;5041806;28;20038;-52
2021/10/17 10:31:39;;;;;;;7.20;3.55;;;13.40;95.10;;;;;;5044294;28;20522;-50
2021/10/17 10:34:05;;;;;;;8.30;2.67;;;13.50;88.50;;;;;;5044876;28;20496;-50
2021/10/17 10:36:39;;;;;;;5.35;2.70;;;13.60;91.30;;;;;;5041538;28;20036;-48
2021/10/17 10:39:06;;;;;;;5.25;2.35;;;13.70;92.30;;;;;;5043748;28;20034;-52
2021/10/17 10:41:53;;;;;;;5.53;2.60;;;13.80;93.20;;;;;;5044187;28;20111;-48
2021/10/17 10:44:20;;;;;;;;;;;13.80;92.40;;;;;;5043746;28;20060;-51
2021/10/17 10:46:52;;;;;;;4.38;2.30;;;13.80;84.80;;;;;;5041398;28;19916;-50
2021/10/17 10:49:40;;;;;;;7.00;2.08;;;13.90;94.10;;;;;;5047871;28;20321;-52
2021/10/17 10:52:09;;;;;;;5.55;2.33;;;13.90;85.60;;;;;;5047764;28;20474;-48
2021/10/17 10:54:35;;;;;;;4.47;2.25;;;13.90;91.50;;;;;;5041232;28;20039;-49
2021/10/17 10:57:00;;;;;;;6.55;2.75;;;14.00;92.60;;;;;;5040165;28;20025;-48
2021/10/17 10:59:48;;;;;;;6.68;2.38;;;14.10;90.80;;;;;;5042284;28;20029;-52
2021/10/17 11:02:17;;;;;;;5.72;2.33;;;14.20;88.40;;;;;;5040463;28;20069;-48
2021/10/17 11:04:44;;;;;;;5.70;2.53;;;14.30;90.60;;;;;;5042237;28;20033;-51
2021/10/17 11:07:19;;;;;;;4.57;2.40;;;14.40;90.00;;;;;;5041806;28;20049;-48
2021/10/17 11:09:46;;;;;;;4.17;2.30;;;14.60;89.10;;;;;;5040077;28;20026;-51
2021/10/17 11:12:40;;;;;;;3.85;2.00;;;14.80;90.10;;;;;;5046562;28;20267;-48
2021/10/17 11:15:07;;;;;;;5.72;1.90;;;15.00;84.50;;;;;;5047243;28;20055;-53
2021/10/17 11:17:33;;;;;;;5.18;2.10;;;15.20;88.20;;;;;;5040688;28;20113;-49
2021/10/17 11:19:59;;;;;;;2.08;1.27;;;15.40;88.30;;;;;;5041255;28;20071;-47
2021/10/17 11:22:24;;;;;;;8.52;2.00;;;15.40;87.10;;;;;;5042101;28;20085;-51
2021/10/17 11:24:54;;;;;;;5.72;1.95;;;15.40;86.20;;;;;;5040589;28;20536;-48
2021/10/17 11:27:20;;;;;;;3.42;1.52;;;15.50;79.10;;;;;;5041937;28;20040;-53
2021/10/17 11:29:47;;;;;;;6.95;2.40;;;15.40;87.10;;;;;;5043108;28;20111;-51
2021/10/17 11:32:19;;;;;;;6.32;1.98;;;15.50;84.70;;;;;;5042452;28;20053;-51
2021/10/17 11:35:02;;;;;;;5.35;2.13;;;15.40;81.60;;;;;;5040607;28;20496;-52
2021/10/17 11:37:29;;;;;;;5.22;2.10;;;15.50;78.50;;;;;;5043557;28;20352;-51
2021/10/17 11:40:08;;;;;;;8.35;2.05;;;15.50;82.50;;;;;;5037712;28;20445;-50
2021/10/17 11:42:47;;;;;;;5.18;1.92;;;15.60;78.40;;;;;;5043054;28;20057;-49
2021/10/17 11:45:20;;;;;;;8.32;2.38;;;15.60;74.70;;;;;;5042222;28;20020;-50
2021/10/17 11:47:48;;;;;;;4.75;1.45;;;15.60;80.70;;;;;;5042578;28;20040;-49
2021/10/17 11:50:29;;;;;;;7.15;1.85;;;15.60;80.10;;;;;;5043903;28;20029;-50
2021/10/17 11:53:02;;;;;;;4.10;1.67;;;15.70;78.20;;;;;;5059431;28;20130;-54
2021/10/17 11:55:46;;;;;;;8.65;1.98;;;15.70;73.90;;;;;;5043739;28;20052;-53
2021/10/17 11:58:15;;;;;;;4.75;1.90;;;15.60;72.10;;;;;;5058198;28;20099;-52
2021/10/17 12:00:43;;;;;;;4.88;2.15;;;15.50;81.60;;;;;;5036792;28;20029;-51
2021/10/17 12:03:08;;;;;;;2.97;1.70;;;15.40;76.60;;;;;;5041838;28;20021;-49
2021/10/17 12:05:36;;;;;;;4.70;1.98;;;15.30;81.90;;;;;;5035753;28;20140;-52
2021/10/17 12:08:02;;;;;;;5.28;2.00;;;15.30;83.20;;;;;;5040449;28;20488;-53
2021/10/17 12:10:30;;;;;;;7.80;2.13;;;15.30;83.70;;;;;;5037544;28;20025;-53
2021/10/17 12:13:03;;;;;;;4.32;1.83;;;15.30;83.40;;;;;;5042492;28;20092;-53
2021/10/17 12:15:31;;;;;;;5.10;1.98;;;15.30;82.30;;;;;;5043053;28;20779;-52
2021/10/17 12:18:04;;;;;;;9.38;5.60;;;15.30;84.50;;;;;;5041694;28;20502;-52
2021/10/17 12:20:31;;;;;;;5.70;2.92;;;15.20;82.30;;;;;;5042084;28;20039;-53
2021/10/17 12:23:01;;;;;;;5.63;2.47;;;15.10;83.10;;;;;;5038838;28;20064;-53
2021/10/17 12:25:28;;;;;;;5.93;2.50;;;15.00;82.60;;;;;;5047362;28;20468;-52
2021/10/17 12:27:54;;;;;;;4.88;1.90;;;14.90;83.80;;;;;;5048816;28;20649;-53
2021/10/17 12:30:22;;;;;;;6.03;2.35;;;14.90;85.70;;;;;;5037329;28;20124;-50
2021/10/17 12:32:55;;;;;;;6.03;2.38;;;14.90;86.10;;;;;;5041918;28;20445;-48
2021/10/17 12:35:28;;;;;;;4.78;2.30;;;14.90;84.70;;;;;;5040418;28;20009;-52
2021/10/17 12:37:54;;;;;;;6.47;2.20;;;14.90;86.10;;;;;;5055056;28;20040;-51
2021/10/17 12:40:20;;;;;;;4.30;1.58;;;14.90;86.60;;;;;;5057803;28;20029;-49
2021/10/17 12:42:58;;;;;;;4.57;1.65;;;15.00;87.30;;;;;;5045116;28;20024;-49
2021/10/17 12:45:31;;;;;;;3.92;1.45;;;15.00;86.30;;;;;;5036620;28;20064;-49
2021/10/17 12:47:57;;;;;;;9.00;2.28;;;15.00;86.90;;;;;;5036465;28;20045;-48
2021/10/17 12:50:25;;;;;;;5.53;1.73;;;15.00;88.30;;;;;;5036404;28;20028;-54
2021/10/17 12:53:01;;;;;;;7.20;2.53;;;14.90;87.60;;;;;;5036432;28;20018;-51